Time;durP1;ratioP1;P1;durP2;ratioP2;P2;SDS_P1;SDS_P2;PMS_P1;PMS_P2;Temp;Humidity;BMP_temperature;BMP_pressure;BME280_temperature;BME280_humidity;BME280_pressure;Samples;Min_cycle;Max_cycle;Signal;HPM_P1;HPM_P2
2023/09/09 00:00:40;;;;;;;;;;;;;;;25.05;61.33;101666.47;5033734;28;19971;-80
2023/09/09 00:03:05;;;;;;;;;;;;;;;25.14;60.91;101667.41;5052172;28;20416;-79
2023/09/09 00:05:31;;;;;;;;;;;;;;;25.08;61.40;101666.47;5026909;28;20064;-80
2023/09/09 00:07:57;;;;;;;;;;;;;;;25.10;61.05;101656.69;5031176;28;19924;-80
2023/09/09 00:10:22;;;;;;;;;;;;;;;25.16;60.86;101662.09;5022381;28;19914;-80
2023/09/09 00:12:48;;;;;;;;;;;;;;;25.11;60.94;101659.38;5019360;28;20436;-79
2023/09/09 00:15:13;;;;;;;;;;;;;;;25.15;60.53;101658.53;5030825;28;19917;-80
2023/09/09 00:17:38;;;;;;;;;;;;;;;25.23;60.48;101661.31;5027501;28;20012;-81
2023/09/09 00:20:14;;;;;;;;;;;;;;;25.26;59.94;101664.00;5016739;28;20314;-80
2023/09/09 00:22:39;;;;;;;;;;;;;;;25.23;60.07;101661.31;5025874;28;19964;-80
2023/09/09 00:25:05;;;;;;;;;;;;;;;25.26;60.22;101661.31;5025008;28;20365;-80
2023/09/09 00:27:30;;;;;;;;;;;;;;;25.22;60.14;101658.63;5031360;28;19917;-80
2023/09/09 00:29:56;;;;;;;;;;;;;;;25.28;60.11;101661.34;5031011;28;20194;-81
2023/09/09 00:32:21;;;;;;;;;;;;;;;25.27;60.04;101665.78;5027124;28;20456;-81
2023/09/09 00:34:47;;;;;;;;;;;;;;;25.23;60.32;101658.63;5031044;28;19921;-81
2023/09/09 00:37:12;;;;;;;;;;;;;;;25.22;60.17;101658.63;5011590;28;20481;-80
2023/09/09 00:39:37;;;;;;;;;;;;;;;25.25;60.05;101659.53;5019453;28;19945;-80
2023/09/09 00:42:03;;;;;;;;;;;;;;;25.26;60.05;101665.78;5024016;28;20432;-81
2023/09/09 00:44:28;;;;;;;;;;;;;;;25.20;60.15;101661.28;5013064;28;19949;-81
2023/09/09 00:46:54;;;;;;;;;;;;;;;25.23;60.59;101663.06;5010436;28;19970;-81
2023/09/09 00:49:20;;;;;;;;;;;;;;;25.23;60.06;101663.06;5032880;28;19935;-80
2023/09/09 00:51:45;;;;;;;;;;;;;;;25.22;60.39;101664.84;5030087;28;19917;-80
2023/09/09 00:54:11;;;;;;;;;;;;;;;25.22;60.30;101662.19;5032520;28;20008;-81
2023/09/09 00:56:36;;;;;;;;;;;;;;;25.22;60.73;101656.84;5031507;28;20379;-81
2023/09/09 00:59:03;;;;;;;;;;;;;;;25.20;60.28;101661.28;5014274;28;20374;-80
2023/09/09 01:01:28;;;;;;;;;;;;;;;25.16;60.20;101662.09;5008335;28;20373;-80
2023/09/09 01:03:54;;;;;;;;;;;;;;;25.19;60.23;101659.47;5021373;28;19921;-80
2023/09/09 01:06:19;;;;;;;;;;;;;;;25.10;60.28;101654.91;5036959;28;20388;-81
2023/09/09 01:08:45;;;;;;;;;;;;;;;25.13;59.79;101651.41;5008491;28;19917;-81
2023/09/09 01:11:10;;;;;;;;;;;;;;;25.10;59.86;101652.22;5029495;28;20406;-82
2023/09/09 01:13:36;;;;;;;;;;;;;;;25.15;59.82;101653.19;5017514;28;20374;-81
2023/09/09 01:16:01;;;;;;;;;;;;;;;25.08;60.02;101654.03;5037040;28;20445;-82
2023/09/09 01:18:28;;;;;;;;;;;;;;;25.12;59.85;101649.59;5022405;28;19967;-81
2023/09/09 01:21:13;;;;;;;;;;;;;;;25.15;59.60;101650.50;5030738;28;19921;-81
2023/09/09 01:23:39;;;;;;;;;;;;;;;25.06;59.76;101644.19;5017099;28;19988;-81
2023/09/09 01:26:04;;;;;;;;;;;;;;;25.10;59.41;101643.34;5030097;28;20003;-79
2023/09/09 01:28:29;;;;;;;;;;;;;;;25.14;59.40;101648.72;5033588;28;20012;-81
2023/09/09 01:30:55;;;;;;;;;;;;;;;25.12;59.20;101642.44;5006963;28;19917;-80
2023/09/09 01:33:20;;;;;;;;;;;;;;;25.09;58.88;101641.56;5029064;28;19956;-81
2023/09/09 01:35:48;;;;;;;;;;;;;;;25.05;59.69;101637.94;5025499;28;20444;-82
2023/09/09 01:38:14;;;;;;;;;;;;;;;25.10;59.40;101633.53;5025940;28;20013;-80
2023/09/09 01:40:39;;;;;;;;;;;;;;;25.09;59.85;101639.78;5030161;28;20062;-81
2023/09/09 01:43:05;;;;;;;;;;;;;;;25.09;59.37;101637.09;5030295;28;19967;-80
2023/09/09 01:45:30;;;;;;;;;;;;;;;25.08;59.15;101638.00;5026692;28;19918;-80
2023/09/09 01:47:56;;;;;;;;;;;;;;;25.05;59.46;101647.75;5025345;28;19933;-80
2023/09/09 01:50:22;;;;;;;;;;;;;;;25.07;58.96;101640.66;5032830;28;19940;-80
2023/09/09 01:52:47;;;;;;;;;;;;;;;25.07;59.63;101635.31;5022662;28;19922;-80
2023/09/09 01:55:12;;;;;;;;;;;;;;;25.05;59.33;101642.41;5028842;28;20412;-80
2023/09/09 01:57:38;;;;;;;;;;;;;;;25.06;59.77;101637.09;5012877;28;19976;-80
2023/09/09 02:00:10;;;;;;;;;;;;;;;25.09;59.31;101633.53;5031189;28;20431;-80
2023/09/09 02:02:35;;;;;;;;;;;;;;;25.08;59.40;101646.00;5010021;28;19996;-82
2023/09/09 02:05:01;;;;;;;;;;;;;;;25.04;59.26;101637.94;5049235;28;19974;-81
2023/09/09 02:07:27;;;;;;;;;;;;;;;24.99;59.81;101636.13;5069373;28;19924;-81
2023/09/09 02:09:52;;;;;;;;;;;;;;;24.95;59.42;101645.00;5066837;28;20423;-81
2023/09/09 02:12:18;;;;;;;;;;;;;;;25.02;58.93;101635.28;5053979;28;19920;-81
2023/09/09 02:14:43;;;;;;;;;;;;;;;25.01;59.21;101637.91;5062465;28;19923;-81
2023/09/09 02:17:09;;;;;;;;;;;;;;;24.97;59.12;101645.91;5063459;28;20417;-80
2023/09/09 02:19:35;;;;;;;;;;;;;;;24.96;58.89;101640.56;5057980;28;20377;-79
2023/09/09 02:22:00;;;;;;;;;;;;;;;24.89;59.19;101647.63;5053936;28;19917;-80
2023/09/09 02:24:25;;;;;;;;;;;;;;;24.91;59.44;101643.19;5044577;28;19913;-81
2023/09/09 02:26:51;;;;;;;;;;;;;;;24.93;58.92;101638.75;5046081;28;20363;-81
2023/09/09 02:29:17;;;;;;;;;;;;;;;24.90;59.22;101649.41;5045691;28;19921;-80
2023/09/09 02:31:42;;;;;;;;;;;;;;;24.90;59.15;101641.38;5042028;28;19924;-80
2023/09/09 02:34:08;;;;;;;;;;;;;;;24.91;59.01;101644.94;5042616;28;19975;-80
2023/09/09 02:36:33;;;;;;;;;;;;;;;24.91;59.11;101644.94;5045561;28;19927;-81
2023/09/09 02:38:59;;;;;;;;;;;;;;;24.92;59.36;101647.66;5049705;28;19916;-81
2023/09/09 02:41:24;;;;;;;;;;;;;;;24.95;58.79;101653.00;5049324;28;19921;-80
2023/09/09 02:43:49;;;;;;;;;;;;;;;24.97;58.67;101647.69;5030641;28;19916;-80
2023/09/09 02:46:15;;;;;;;;;;;;;;;24.92;59.19;101647.66;5051078;28;19912;-79
2023/09/09 02:48:40;;;;;;;;;;;;;;;24.90;58.95;101649.41;5042607;28;20294;-81
2023/09/09 02:51:06;;;;;;;;;;;;;;;24.93;59.17;101656.56;5053414;28;20399;-80
2023/09/09 02:53:31;;;;;;;;;;;;;;;24.91;59.48;101650.28;5051209;28;20312;-80
2023/09/09 02:55:57;;;;;;;;;;;;;;;24.90;59.38;101646.75;5053451;28;19931;-80
2023/09/09 02:58:22;;;;;;;;;;;;;;;24.87;59.63;101649.41;5046875;28;19917;-80
2023/09/09 03:00:47;;;;;;;;;;;;;;;24.91;59.03;101653.88;5046512;28;20019;-80
2023/09/09 03:03:15;;;;;;;;;;;;;;;24.89;59.02;101652.06;5048089;28;19964;-80
2023/09/09 03:05:40;;;;;;;;;;;;;;;24.88;58.77;101645.81;5054779;28;20278;-80
2023/09/09 03:08:06;;;;;;;;;;;;;;;24.85;59.32;101650.22;5051921;28;19917;-81
2023/09/09 03:10:32;;;;;;;;;;;;;;;24.85;59.15;101645.81;5049455;28;20079;-82
2023/09/09 03:12:58;;;;;;;;;;;;;;;24.86;59.00;101647.59;5053664;28;19921;-83
2023/09/09 03:15:23;;;;;;;;;;;;;;;24.83;59.17;101647.56;5034690;28;19932;-83
2023/09/09 03:17:49;;;;;;;;;;;;;;;24.83;59.14;101644.91;5032997;28;19995;-83
2023/09/09 03:20:14;;;;;;;;;;;;;;;24.81;59.23;101637.72;5034448;28;19956;-83
2023/09/09 03:22:40;;;;;;;;;;;;;;;24.82;59.33;101643.09;5050133;28;19924;-83
2023/09/09 03:25:07;;;;;;;;;;;;;;;24.76;59.66;101641.28;5032743;28;19921;-82
2023/09/09 03:27:32;;;;;;;;;;;;;;;24.73;59.33;101638.56;5037294;28;19928;-83
2023/09/09 03:29:58;;;;;;;;;;;;;;;24.79;59.13;101632.41;5045692;28;19921;-84
2023/09/09 03:32:25;;;;;;;;;;;;;;;24.75;59.25;101635.91;5046682;28;19917;-83
2023/09/09 03:34:51;;;;;;;;;;;;;;;24.75;59.02;101633.25;5055039;28;20293;-81
2023/09/09 03:37:17;;;;;;;;;;;;;;;24.78;58.91;101634.16;5060138;28;20412;-82
2023/09/09 03:39:42;;;;;;;;;;;;;;;24.79;59.06;101637.75;5034384;28;19939;-81
2023/09/09 03:42:08;;;;;;;;;;;;;;;24.75;59.05;101644.81;5051972;28;19916;-82
2023/09/09 03:44:33;;;;;;;;;;;;;;;24.73;58.81;101649.25;5042738;28;20321;-82
2023/09/09 03:46:59;;;;;;;;;;;;;;;24.73;59.03;101651.91;5044200;28;20351;-82
2023/09/09 03:49:25;;;;;;;;;;;;;;;24.71;58.71;101656.34;5048737;28;19916;-81
2023/09/09 03:51:53;;;;;;;;;;;;;;;24.71;59.07;101650.13;5051884;28;20206;-81
2023/09/09 03:54:18;;;;;;;;;;;;;;;24.69;59.22;101652.78;5047289;28;20003;-82
2023/09/09 03:56:44;;;;;;;;;;;;;;;24.71;58.79;101653.69;5043733;28;20390;-82
2023/09/09 03:59:09;;;;;;;;;;;;;;;24.68;58.89;101658.09;5049694;28;20370;-82
2023/09/09 04:01:35;;;;;;;;;;;;;;;24.66;59.18;101655.44;5054189;28;20415;-80
2023/09/09 04:04:01;;;;;;;;;;;;;;;24.67;58.71;101654.53;5050264;28;19921;-80
2023/09/09 04:06:27;;;;;;;;;;;;;;;24.67;58.82;101653.63;5040705;28;19991;-80
2023/09/09 04:08:56;;;;;;;;;;;;;;;24.61;59.10;101651.78;5036252;28;20372;-79
2023/09/09 04:11:21;;;;;;;;;;;;;;;24.63;59.37;101649.16;5036768;28;19949;-76
2023/09/09 04:13:47;;;;;;;;;;;;;;;24.63;58.90;101650.03;5041627;28;19971;-80
2023/09/09 04:16:12;;;;;;;;;;;;;;;24.61;59.07;101658.91;5034226;28;20350;-81
2023/09/09 04:18:37;;;;;;;;;;;;;;;24.66;58.73;101660.78;5045250;28;20451;-80
2023/09/09 04:21:03;;;;;;;;;;;;;;;24.64;58.60;101653.59;5052316;28;19920;-80
2023/09/09 04:23:28;;;;;;;;;;;;;;;24.65;58.71;101663.41;5047909;28;19924;-80
2023/09/09 04:25:54;;;;;;;;;;;;;;;24.58;58.68;101658.00;5039577;28;20282;-81
2023/09/09 04:28:19;;;;;;;;;;;;;;;24.60;58.76;101662.50;5052771;28;19920;-81
2023/09/09 04:30:46;;;;;;;;;;;;;;;24.58;58.90;101659.78;5047567;28;19944;-80
2023/09/09 04:33:11;;;;;;;;;;;;;;;24.55;58.92;101658.00;5045662;28;20042;-81
2023/09/09 04:35:37;;;;;;;;;;;;;;;24.61;58.58;101661.59;5052969;28;20441;-81
2023/09/09 04:38:03;;;;;;;;;;;;;;;24.61;58.99;101659.81;5041848;28;19920;-81
2023/09/09 04:40:28;;;;;;;;;;;;;;;24.56;58.83;101667.78;5021080;28;19919;-81
2023/09/09 04:42:54;;;;;;;;;;;;;;;24.55;58.92;101662.41;5055248;28;20404;-80
2023/09/09 04:45:20;;;;;;;;;;;;;;;24.60;58.45;101670.50;5052278;28;20389;-81
2023/09/09 04:47:45;;;;;;;;;;;;;;;24.56;58.82;101666.88;5049783;28;19959;-81
2023/09/09 04:50:13;;;;;;;;;;;;;;;24.57;58.68;101674.94;5038006;28;19986;-80
2023/09/09 04:52:38;;;;;;;;;;;;;;;24.55;59.15;101671.34;5048830;28;19920;-80
2023/09/09 04:55:04;;;;;;;;;;;;;;;24.56;58.37;101670.44;5036296;28;19916;-80
2023/09/09 04:57:29;;;;;;;;;;;;;;;24.57;58.57;101676.69;5034894;28;19913;-81
2023/09/09 04:59:55;;;;;;;;;;;;;;;24.55;58.14;101675.75;5051988;28;19912;-81
2023/09/09 05:02:21;;;;;;;;;;;;;;;24.53;58.56;101666.84;5044709;28;19916;-82
2023/09/09 05:04:46;;;;;;;;;;;;;;;24.53;58.61;101670.44;5057980;28;19927;-82
2023/09/09 05:07:11;;;;;;;;;;;;;;;24.51;58.63;101660.59;5060247;28;19922;-81
2023/09/09 05:09:37;;;;;;;;;;;;;;;24.54;58.40;101671.31;5052134;28;20401;-82
2023/09/09 05:12:02;;;;;;;;;;;;;;;24.54;58.80;101663.31;5047172;28;20404;-81
2023/09/09 05:14:28;;;;;;;;;;;;;;;24.50;58.72;101665.03;5039849;28;19928;-81
2023/09/09 05:16:53;;;;;;;;;;;;;;;24.52;58.64;101665.06;5034145;28;19924;-81
2023/09/09 05:19:19;;;;;;;;;;;;;;;24.53;58.34;101670.44;5049847;28;19921;-81
2023/09/09 05:21:44;;;;;;;;;;;;;;;24.52;58.75;101671.28;5033279;28;20403;-82
2023/09/09 05:24:09;;;;;;;;;;;;;;;24.50;58.79;101677.50;5051072;28;19920;-81
2023/09/09 05:26:35;;;;;;;;;;;;;;;24.52;58.59;101678.41;5056415;28;20313;-81
2023/09/09 05:29:01;;;;;;;;;;;;;;;24.51;58.63;101681.94;5041988;28;19966;-80
2023/09/09 05:31:27;;;;;;;;;;;;;;;24.52;58.90;101681.09;5045906;28;20313;-80
2023/09/09 05:33:52;;;;;;;;;;;;;;;24.52;58.67;101670.41;5044780;28;19933;-80
2023/09/09 05:36:18;;;;;;;;;;;;;;;24.52;58.35;101676.63;5043026;28;19925;-80
2023/09/09 05:38:43;;;;;;;;;;;;;;;24.51;58.16;101679.28;5048823;28;20432;-82
2023/09/09 05:41:09;;;;;;;;;;;;;;;24.50;58.20;101674.84;5048256;28;19925;-80
2023/09/09 05:43:35;;;;;;;;;;;;;;;24.47;58.61;101683.69;5051699;28;20011;-82
2023/09/09 05:46:00;;;;;;;;;;;;;;;24.46;58.37;101670.31;5043782;28;20007;-81
2023/09/09 05:48:26;;;;;;;;;;;;;;;24.47;58.44;101672.06;5048061;28;19917;-80
2023/09/09 05:50:51;;;;;;;;;;;;;;;24.47;58.62;101672.06;5038906;28;19968;-81
2023/09/09 05:53:17;;;;;;;;;;;;;;;24.41;59.21;101680.03;5047982;28;20372;-80
2023/09/09 05:55:42;;;;;;;;;;;;;;;24.40;58.78;101673.78;5052117;28;19975;-81
2023/09/09 05:58:07;;;;;;;;;;;;;;;24.49;58.48;101678.38;5042947;28;19921;-80
2023/09/09 06:00:33;;;;;;;;;;;;;;;24.26;59.53;101678.09;5031464;28;20425;-83
2023/09/09 06:02:58;;;;;;;;;;;;;;;24.33;59.30;101680.84;5046090;28;20004;-82
2023/09/09 06:05:24;;;;;;;;;;;;;;;24.47;58.17;101685.44;5047512;28;19924;-82
2023/09/09 06:07:49;;;;;;;;;;;;;;;24.44;58.61;101688.06;5042419;28;20392;-80
2023/09/09 06:10:15;;;;;;;;;;;;;;;24.27;58.64;101683.41;5044302;28;19943;-80
2023/09/09 06:12:40;;;;;;;;;;;;;;;24.33;59.15;101687.94;5044450;28;19920;-80
2023/09/09 06:15:06;;;;;;;;;;;;;;;24.31;58.82;101684.38;5050009;28;19916;-80
2023/09/09 06:17:31;;;;;;;;;;;;;;;24.26;59.37;101692.31;5048979;28;19916;-80
2023/09/09 06:19:56;;;;;;;;;;;;;;;24.21;59.64;101686.00;5043099;28;19924;-80
2023/09/09 06:22:22;;;;;;;;;;;;;;;24.23;59.17;101686.94;5049853;28;19952;-80
2023/09/09 06:24:47;;;;;;;;;;;;;;;24.27;59.35;101693.22;5058673;28;19958;-81
2023/09/09 06:27:13;;;;;;;;;;;;;;;24.36;59.14;101691.56;5046615;28;21958;-80
2023/09/09 06:29:38;;;;;;;;;;;;;;;24.33;59.10;101688.84;5045929;28;19927;-81
2023/09/09 06:32:06;;;;;;;;;;;;;;;24.24;59.17;101687.84;5052785;28;19924;-81
2023/09/09 06:34:31;;;;;;;;;;;;;;;24.33;58.99;101699.53;5045955;28;19924;-83
2023/09/09 06:36:57;;;;;;;;;;;;;;;24.19;59.76;101703.78;5046944;28;19921;-82
2023/09/09 06:39:22;;;;;;;;;;;;;;;24.28;59.60;101703.91;5052913;28;20381;-80
2023/09/09 06:41:48;;;;;;;;;;;;;;;24.17;59.40;101701.13;5041318;28;19928;-81
2023/09/09 06:44:13;;;;;;;;;;;;;;;24.18;59.28;101704.69;5031145;28;20313;-80
2023/09/09 06:46:38;;;;;;;;;;;;;;;24.35;58.99;101702.22;5052644;28;19959;-80
2023/09/09 06:49:04;;;;;;;;;;;;;;;24.32;59.18;101704.81;5058061;28;20304;-81
2023/09/09 06:51:29;;;;;;;;;;;;;;;24.18;59.60;101708.22;5036676;28;20376;-82
2023/09/09 06:53:56;;;;;;;;;;;;;;;24.14;59.66;101702.84;5052373;28;20324;-81
2023/09/09 06:56:21;;;;;;;;;;;;;;;24.12;60.07;101702.81;5045114;28;19925;-80
2023/09/09 06:58:46;;;;;;;;;;;;;;;24.15;60.35;101700.19;5054541;28;19928;-80
2023/09/09 07:01:12;;;;;;;;;;;;;;;24.32;59.02;101705.75;5056292;28;20442;-81
2023/09/09 07:03:39;;;;;;;;;;;;;;;24.16;59.89;101706.44;5033967;28;20452;-82
2023/09/09 07:06:05;;;;;;;;;;;;;;;24.16;59.68;101709.09;5015023;28;20313;-81
2023/09/09 07:08:30;;;;;;;;;;;;;;;24.14;60.20;101709.06;5036740;28;20004;-82
2023/09/09 07:10:56;;;;;;;;;;;;;;;24.28;59.19;101705.69;5024752;28;20383;-80
2023/09/09 07:13:22;;;;;;;;;;;;;;;24.35;58.30;101705.78;5031642;28;19917;-82
2023/09/09 07:15:50;;;;;;;;;;;;;;;24.25;59.63;101709.19;5027204;28;19921;-82
2023/09/09 07:18:15;;;;;;;;;;;;;;;24.35;58.67;101702.22;5035746;28;19924;-84
2023/09/09 07:20:42;;;;;;;;;;;;;;;24.38;57.97;101703.16;5028241;28;20465;-82
2023/09/09 07:23:07;;;;;;;;;;;;;;;24.39;59.44;101706.72;5029212;28;19963;-83
2023/09/09 07:25:33;;;;;;;;;;;;;;;24.35;59.47;101704.88;5039444;28;19921;-83
2023/09/09 07:27:58;;;;;;;;;;;;;;;24.38;58.90;101708.50;5028556;28;19987;-83
2023/09/09 07:30:24;;;;;;;;;;;;;;;24.36;59.71;101701.31;5029377;28;19925;-83
2023/09/09 07:32:49;;;;;;;;;;;;;;;24.34;59.54;101700.41;5032553;28;20366;-85
2023/09/09 07:35:15;;;;;;;;;;;;;;;24.23;60.38;101705.63;5033436;28;19924;-84
2023/09/09 07:37:40;;;;;;;;;;;;;;;24.20;60.14;101705.59;5026168;28;20059;-83
2023/09/09 07:40:06;;;;;;;;;;;;;;;24.22;60.08;101710.97;5032119;28;20314;-86
2023/09/09 07:42:31;;;;;;;;;;;;;;;24.31;60.01;101711.94;5031076;28;19945;-82
2023/09/09 07:44:57;;;;;;;;;;;;;;;24.31;59.87;101711.94;5032195;28;19924;-83
2023/09/09 07:47:22;;;;;;;;;;;;;;;24.29;60.32;101716.38;5032755;28;19925;-84
2023/09/09 07:49:49;;;;;;;;;;;;;;;24.27;60.30;101704.78;5026507;28;19927;-82
2023/09/09 07:52:14;;;;;;;;;;;;;;;24.24;60.51;101715.44;5028395;28;19921;-83
2023/09/09 07:54:40;;;;;;;;;;;;;;;24.26;60.49;101719.03;5022750;28;19924;-82
2023/09/09 07:57:05;;;;;;;;;;;;;;;24.31;60.32;101713.72;5030092;28;19953;-82
2023/09/09 07:59:31;;;;;;;;;;;;;;;24.28;59.22;101711.94;5030767;28;19968;-82
2023/09/09 08:01:56;;;;;;;;;;;;;;;24.26;59.19;101710.13;5032757;28;19924;-82
2023/09/09 08:04:22;;;;;;;;;;;;;;;24.21;59.45;101718.03;5039381;28;19921;-83
2023/09/09 08:06:48;;;;;;;;;;;;;;;24.28;59.43;101711.03;5033382;28;19917;-82
2023/09/09 08:09:14;;;;;;;;;;;;;;;24.24;59.06;101719.88;5031513;28;20387;-83
2023/09/09 08:11:40;;;;;;;;;;;;;;;24.13;59.00;101720.63;5036018;28;19974;-82
2023/09/09 08:14:05;;;;;;;;;;;;;;;24.09;59.57;101718.78;5039479;28;19913;-82
2023/09/09 08:16:30;;;;;;;;;;;;;;;24.27;58.68;101722.56;5046383;28;19928;-83
2023/09/09 08:18:56;;;;;;;;;;;;;;;24.35;58.92;101720.91;5041108;28;19917;-83
2023/09/09 08:21:22;;;;;;;;;;;;;;;24.35;59.13;101721.78;5052659;28;20297;-84
2023/09/09 08:23:47;;;;;;;;;;;;;;;24.38;59.06;101727.19;5051206;28;19939;-83
2023/09/09 08:26:12;;;;;;;;;;;;;;;24.39;58.98;101720.94;5052928;28;19975;-83
2023/09/09 08:28:39;;;;;;;;;;;;;;;24.31;59.21;101717.28;5051222;28;20381;-83
2023/09/09 08:31:05;;;;;;;;;;;;;;;24.36;59.18;101715.59;5039705;28;19939;-83
2023/09/09 08:33:30;;;;;;;;;;;;;;;24.36;59.49;101712.94;5045656;28;20388;-82
2023/09/09 08:35:59;;;;;;;;;;;;;;;24.32;59.94;101708.41;5064938;28;20374;-83
2023/09/09 08:38:24;;;;;;;;;;;;;;;24.34;59.52;101711.09;5058285;28;19953;-81
2023/09/09 08:41:10;;;;;;;;;;;;;;;24.28;60.00;101708.38;5047029;28;20011;-83
2023/09/09 08:43:54;;;;;;;;;;;;;;;24.32;59.80;101703.09;5051381;28;20028;-83
2023/09/09 08:46:20;;;;;;;;;;;;;;;24.32;59.90;101710.16;5055926;28;20374;-83
2023/09/09 08:48:46;;;;;;;;;;;;;;;24.34;59.11;101709.34;5034834;28;19951;-83
2023/09/09 08:51:13;;;;;;;;;;;;;;;24.32;59.73;101711.09;5034635;28;19917;-83
2023/09/09 08:53:39;;;;;;;;;;;;;;;24.28;59.44;101703.91;5050756;28;20011;-82
2023/09/09 08:56:04;;;;;;;;;;;;;;;24.26;59.54;101705.66;5040164;28;20012;-83
2023/09/09 08:58:30;;;;;;;;;;;;;;;24.33;59.56;101701.31;5037413;28;19920;-83
2023/09/09 09:00:55;;;;;;;;;;;;;;;24.29;59.85;101705.69;5051627;28;20312;-82
2023/09/09 09:03:21;;;;;;;;;;;;;;;24.28;59.63;101695.91;5037556;28;20388;-83
2023/09/09 09:05:46;;;;;;;;;;;;;;;24.29;59.64;101700.34;5048021;28;20322;-82
2023/09/09 09:08:11;;;;;;;;;;;;;;;24.25;59.81;101709.19;5030277;28;19984;-85
2023/09/09 09:10:37;;;;;;;;;;;;;;;24.26;59.97;101699.44;5045424;28;20416;-81
2023/09/09 09:13:02;;;;;;;;;;;;;;;24.25;59.21;101695.84;5048192;28;19924;-80
2023/09/09 09:15:31;;;;;;;;;;;;;;;24.28;59.57;101697.69;5050068;28;20298;-82
2023/09/09 09:17:56;;;;;;;;;;;;;;;24.30;59.47;101690.56;5051533;28;20585;-82
2023/09/09 09:20:26;;;;;;;;;;;;;;;24.28;59.72;101690.56;5036835;28;19924;-82
2023/09/09 09:22:51;;;;;;;;;;;;;;;24.24;59.97;101685.19;5043381;28;19940;-85
2023/09/09 09:25:23;;;;;;;;;;;;;;;24.28;59.57;101687.00;5022542;28;20355;-83
2023/09/09 09:27:48;;;;;;;;;;;;;;;24.28;59.23;101681.69;5047855;28;20466;-83
2023/09/09 09:30:14;;;;;;;;;;;;;;;24.29;59.20;101686.13;5050035;28;19932;-84
2023/09/09 09:32:42;;;;;;;;;;;;;;;24.27;59.48;101682.53;5050088;28;19924;-85
2023/09/09 09:35:24;;;;;;;;;;;;;;;24.28;59.49;101684.34;5050726;28;19958;-84
2023/09/09 09:37:52;;;;;;;;;;;;;;;24.25;59.53;101677.16;5014083;28;19925;-84
2023/09/09 09:40:18;;;;;;;;;;;;;;;24.23;58.78;101672.69;5040048;28;19925;-84
2023/09/09 09:42:43;;;;;;;;;;;;;;;24.21;59.61;101672.66;5040976;28;19933;-83
2023/09/09 09:45:09;;;;;;;;;;;;;;;24.19;59.31;101679.75;5044762;28;20393;-85
2023/09/09 09:48:00;;;;;;;;;;;;;;;24.22;59.24;101671.81;5051547;28;20007;-83
2023/09/09 09:50:30;;;;;;;;;;;;;;;24.26;59.42;101670.09;5042837;28;20003;-80
2023/09/09 09:53:05;;;;;;;;;;;;;;;24.29;59.54;101659.44;5051353;28;19967;-80
2023/09/09 09:55:31;;;;;;;;;;;;;;;24.29;59.68;101664.75;5032414;28;19924;-82
2023/09/09 09:57:57;;;;;;;;;;;;;;;24.27;59.87;101656.72;5043138;28;19925;-83
2023/09/09 10:00:23;;;;;;;;;;;;;;;24.30;59.42;101656.78;5042812;28;20004;-82
2023/09/09 10:02:51;;;;;;;;;;;;;;;24.30;59.58;101666.53;5036273;28;19983;-82
2023/09/09 10:05:16;;;;;;;;;;;;;;;24.23;60.03;101659.34;5043771;28;19971;-82
2023/09/09 10:07:43;;;;;;;;;;;;;;;24.28;60.00;101655.88;5031964;28;19929;-82
2023/09/09 10:10:09;;;;;;;;;;;;;;;24.18;60.36;101651.28;5025422;28;19921;-82
2023/09/09 10:12:37;;;;;;;;;;;;;;;24.18;59.74;101665.53;5021915;28;19952;-82
2023/09/09 10:15:03;;;;;;;;;;;;;;;24.24;60.03;101656.72;5023792;28;19980;-82
2023/09/09 10:17:29;;;;;;;;;;;;;;;24.28;59.86;101661.22;5036890;28;19928;-85
2023/09/09 10:19:54;;;;;;;;;;;;;;;24.29;59.99;101657.66;5027381;28;19924;-82
2023/09/09 10:22:20;;;;;;;;;;;;;;;24.30;59.76;101656.78;5055461;28;19916;-84
2023/09/09 10:24:49;;;;;;;;;;;;;;;24.32;59.82;101657.69;5029227;28;19917;-84
2023/09/09 10:27:16;;;;;;;;;;;;;;;24.32;60.13;101654.09;5024654;28;19924;-84
2023/09/09 10:29:43;;;;;;;;;;;;;;;24.29;60.04;101646.97;5045848;28;20000;-85
2023/09/09 10:32:09;;;;;;;;;;;;;;;24.30;59.71;101648.78;5028521;28;19975;-84
2023/09/09 10:34:36;;;;;;;;;;;;;;;24.34;59.86;101647.94;5032521;28;19917;-85
2023/09/09 10:37:04;;;;;;;;;;;;;;;24.33;59.70;101650.56;5025165;28;20380;-85
2023/09/09 10:39:29;;;;;;;;;;;;;;;24.32;59.97;101638.09;5029232;28;19920;-82
2023/09/09 10:41:55;;;;;;;;;;;;;;;24.32;59.90;101651.44;5015694;28;20003;-82
2023/09/09 10:44:21;;;;;;;;;;;;;;;24.33;59.92;101645.25;5025613;28;19917;-83
2023/09/09 10:46:46;;;;;;;;;;;;;;;24.28;59.99;101631.84;5032296;28;20444;-81
2023/09/09 10:49:16;;;;;;;;;;;;;;;24.29;59.92;101638.97;5027339;28;19995;-82
2023/09/09 10:51:51;;;;;;;;;;;;;;;24.33;59.68;101637.22;5039673;28;20513;-81
2023/09/09 10:54:21;;;;;;;;;;;;;;;24.34;58.90;101628.31;5058346;28;20279;-81
2023/09/09 10:56:53;;;;;;;;;;;;;;;24.34;59.61;101631.00;5029946;28;19925;-83
2023/09/09 10:59:19;;;;;;;;;;;;;;;24.33;59.50;101630.09;5048507;28;19940;-83
2023/09/09 11:01:46;;;;;;;;;;;;;;;24.33;59.60;101632.78;5046462;28;19928;-84
2023/09/09 11:04:18;;;;;;;;;;;;;;;24.33;59.26;101630.09;5025692;28;20004;-85
2023/09/09 11:06:57;;;;;;;;;;;;;;;24.33;59.73;101627.44;5033292;28;19948;-82
2023/09/09 11:09:27;;;;;;;;;;;;;;;24.36;59.30;101627.50;5049554;28;20653;-82
2023/09/09 11:11:52;;;;;;;;;;;;;;;24.34;59.32;101625.66;5048784;28;20403;-82
2023/09/09 11:14:18;;;;;;;;;;;;;;;24.36;59.66;101611.47;5024063;28;19912;-83
2023/09/09 11:16:43;;;;;;;;;;;;;;;24.31;59.83;101614.97;5041368;28;20016;-83
2023/09/09 11:19:10;;;;;;;;;;;;;;;24.36;59.72;101618.56;5034614;28;20395;-83
2023/09/09 11:21:38;;;;;;;;;;;;;;;24.34;60.07;101613.22;5034031;28;20000;-82
2023/09/09 11:24:03;;;;;;;;;;;;;;;24.35;59.81;101607.00;5049480;28;19923;-83
2023/09/09 11:26:29;;;;;;;;;;;;;;;24.41;59.68;101605.28;5032301;28;19920;-83
2023/09/09 11:28:54;;;;;;;;;;;;;;;24.44;59.48;101607.97;5031561;28;20371;-84
2023/09/09 11:31:20;;;;;;;;;;;;;;;24.48;59.33;101594.66;5028641;28;20377;-84
2023/09/09 11:33:45;;;;;;;;;;;;;;;24.67;58.57;101592.22;5050102;28;20590;-83
2023/09/09 11:36:14;;;;;;;;;;;;;;;24.54;59.17;101589.41;5051423;28;19946;-84
2023/09/09 11:38:40;;;;;;;;;;;;;;;24.61;58.16;101586.81;5012694;28;19924;-82
2023/09/09 11:41:05;;;;;;;;;;;;;;;24.63;58.37;101582.38;5047026;28;19913;-83
2023/09/09 11:43:31;;;;;;;;;;;;;;;24.61;58.52;101581.47;5034212;28;19939;-82
2023/09/09 11:45:56;;;;;;;;;;;;;;;24.56;58.46;101585.00;5052846;28;19917;-82
2023/09/09 11:48:25;;;;;;;;;;;;;;;24.66;58.44;101585.06;5050435;28;20047;-83
2023/09/09 11:50:50;;;;;;;;;;;;;;;24.72;57.81;101578.03;5052463;28;19924;-82
2023/09/09 11:53:16;;;;;;;;;;;;;;;24.74;58.38;101583.34;5053475;28;19917;-83
2023/09/09 11:55:41;;;;;;;;;;;;;;;24.69;58.12;101579.75;5045285;28;20062;-84
2023/09/09 11:58:07;;;;;;;;;;;;;;;24.75;58.08;101580.72;5052001;28;20491;-83
2023/09/09 12:00:33;;;;;;;;;;;;;;;24.75;58.22;101569.13;5034085;28;19917;-84
2023/09/09 12:02:58;;;;;;;;;;;;;;;24.74;57.70;101573.59;5051467;28;19925;-84
2023/09/09 12:05:30;;;;;;;;;;;;;;;24.72;58.11;101566.41;5052139;28;19986;-85
2023/09/09 12:07:59;;;;;;;;;;;;;;;24.72;58.15;101575.34;5027590;28;19925;-86
2023/09/09 12:10:25;;;;;;;;;;;;;;;24.73;57.91;101569.13;5025571;28;20030;-85
2023/09/09 12:12:50;;;;;;;;;;;;;;;24.72;58.22;101559.31;5016973;28;20062;-84
2023/09/09 12:15:16;;;;;;;;;;;;;;;24.75;58.32;101556.66;5049311;28;20044;-85
2023/09/09 12:17:42;;;;;;;;;;;;;;;24.71;58.43;101557.53;5047855;28;19921;-84
2023/09/09 12:20:08;;;;;;;;;;;;;;;24.74;58.50;101564.66;5033445;28;19920;-84
2023/09/09 12:22:47;;;;;;;;;;;;;;;24.74;58.64;101570.91;5053010;28;20336;-84
2023/09/09 12:25:34;;;;;;;;;;;;;;;24.76;58.28;101566.47;5041497;28;20424;-85
2023/09/09 12:28:03;;;;;;;;;;;;;;;24.75;58.38;101556.66;5044753;28;20027;-87
2023/09/09 12:30:35;;;;;;;;;;;;;;;24.77;58.23;101559.34;5022708;28;20539;-87